Time;durP1;ratioP1;P1;durP2;ratioP2;P2;SDS_P1;SDS_P2;PMS_P1;PMS_P2;Temp;Humidity;BMP_temperature;BMP_pressure;BME280_temperature;BME280_humidity;BME280_pressure;Samples;Min_cycle;Max_cycle;Signal;HPM_P1;HPM_P2
2022/10/03 00:02:13;;;;;;;3.95;1.88;;;;;;;18.03;47.13;102352.25;5038833;28;20032;-63
2022/10/03 00:05:03;;;;;;;7.78;1.60;;;;;;;18.00;46.84;102346.25;5038668;28;20025;-63
2022/10/03 00:07:47;;;;;;;6.43;1.92;;;;;;;18.04;47.62;102353.09;5038615;28;20470;-64
2022/10/03 00:10:24;;;;;;;6.35;2.30;;;;;;;18.02;47.39;102361.41;5038508;28;20393;-64
2022/10/03 00:13:16;;;;;;;5.10;2.30;;;;;;;18.08;47.27;102364.53;5037384;28;20387;-64
2022/10/03 00:16:01;;;;;;;10.65;2.13;;;;;;;18.08;47.23;102369.97;5037553;28;20112;-64
2022/10/03 00:18:33;;;;;;;3.63;1.67;;;;;;;18.09;46.83;102371.69;5037204;28;20025;-64
2022/10/03 00:21:40;;;;;;;13.18;1.92;;;;;;;18.08;47.23;102370.81;5038428;28;20029;-64
2022/10/03 00:24:26;;;;;;;9.77;1.90;;;;;;;18.06;47.61;102371.97;5037873;28;20148;-64
2022/10/03 00:26:59;;;;;;;7.13;1.65;;;;;;;18.04;47.69;102363.94;5038376;28;20065;-64
2022/10/03 00:29:27;;;;;;;4.13;1.88;;;;;;;18.04;47.46;102359.38;5053828;28;20025;-64
2022/10/03 00:32:19;;;;;;;4.78;2.95;;;;;;;18.07;47.81;102366.38;5038371;28;20112;-64
2022/10/03 00:35:02;;;;;;;7.50;2.38;;;;;;;18.07;48.42;102360.97;5038302;28;20029;-64
2022/10/03 00:37:49;;;;;;;5.45;2.15;;;;;;;18.08;48.63;102361.81;5037150;28;20484;-64
2022/10/03 00:40:33;;;;;;;12.77;2.70;;;;;;;18.09;48.62;102377.13;5051412;28;20446;-64
2022/10/03 00:43:08;;;;;;;3.03;1.58;;;;;;;18.11;47.80;102369.69;5035032;28;20021;-64
2022/10/03 00:46:00;;;;;;;7.30;2.53;;;;;;;18.09;47.55;102361.66;5035126;28;20032;-63
2022/10/03 00:49:02;;;;;;;7.80;1.77;;;;;;;18.14;47.99;102367.56;5035079;28;20034;-64
2022/10/03 00:51:49;;;;;;;6.25;2.22;;;;;;;18.16;48.19;102367.41;5035057;28;20025;-65
2022/10/03 00:54:39;;;;;;;8.02;2.60;;;;;;;18.17;48.13;102366.41;5035076;28;20076;-64
2022/10/03 00:57:16;;;;;;;8.95;2.90;;;;;;;18.14;47.81;102355.84;5034656;28;20119;-63
2022/10/03 01:00:01;;;;;;;5.88;2.10;;;;;;;18.15;47.77;102366.53;5034781;28;20044;-64
2022/10/03 01:02:52;;;;;;;7.28;2.40;;;;;;;18.17;48.26;102369.13;5034789;28;20522;-64
2022/10/03 01:05:29;;;;;;;9.98;2.33;;;;;;;18.18;47.89;102370.81;5033494;28;20057;-64
2022/10/03 01:08:19;;;;;;;7.72;2.10;;;;;;;18.18;47.33;102365.41;5034516;28;20017;-64
2022/10/03 01:11:03;;;;;;;5.05;2.60;;;;;;;18.18;48.28;102370.81;5034535;28;20038;-64
2022/10/03 01:13:49;;;;;;;14.38;3.35;;;;;;;18.17;47.59;102363.72;5034593;28;20037;-63
2022/10/03 01:16:26;;;;;;;7.00;2.22;;;;;;;18.16;47.70;102359.25;5034426;28;20431;-64
2022/10/03 01:19:19;;;;;;;6.13;2.80;;;;;;;18.17;47.58;102366.41;5033588;28;20033;-64
2022/10/03 01:21:56;;;;;;;7.82;2.50;;;;;;;18.15;47.78;102365.69;5033211;28;20439;-63
2022/10/03 01:24:49;;;;;;;10.73;3.33;;;;;;;18.18;48.38;102370.81;5033067;28;20029;-64
2022/10/03 01:27:23;;;;;;;11.35;3.90;;;;;;;18.17;48.33;102374.56;5034265;28;20084;-64
2022/10/03 01:32:51;;;;;;;7.47;3.10;;;;;;;18.18;48.67;102376.25;5033262;28;20083;-63
2022/10/03 01:35:32;;;;;;;6.28;2.45;;;;;;;18.19;48.53;102384.25;5049231;28;20025;-63
2022/10/03 01:37:58;;;;;;;6.18;2.83;;;;;;;18.19;48.56;102384.25;5034084;28;20478;-64
2022/10/03 01:40:28;;;;;;;6.70;2.95;;;;;;;18.20;48.31;102387.84;5034128;28;20025;-64
2022/10/03 01:42:53;;;;;;;14.50;3.20;;;;;;;18.20;49.07;102391.38;5032865;28;20034;-63
2022/10/03 01:45:46;;;;;;;9.15;2.97;;;;;;;18.21;48.24;102394.97;5034017;28;20025;-64
2022/10/03 01:48:41;;;;;;;12.88;3.88;;;;;;;18.20;48.04;102395.97;5032735;28;20426;-64
2022/10/03 01:51:11;;;;;;;9.27;2.95;;;;;;;18.19;48.08;102397.81;5016408;28;20041;-64
2022/10/03 01:53:55;;;;;;;5.20;2.50;;;;;;;18.19;47.81;102399.69;5031817;28;20106;-64
2022/10/03 01:56:45;;;;;;;11.07;2.67;;;;;;;18.19;48.15;102403.25;5049107;28;20124;-64
2022/10/03 01:59:37;;;;;;;5.70;2.90;;;;;;;18.14;48.18;102402.81;5032527;28;20475;-64
2022/10/03 02:02:30;;;;;;;13.85;3.10;;;;;;;18.14;48.67;102400.09;5033655;28;20037;-64
2022/10/03 02:05:03;;;;;;;10.55;2.63;;;;;;;18.12;48.54;102403.97;5032445;28;20025;-63
2022/10/03 02:07:40;;;;;;;10.68;2.70;;;;;;;18.10;47.35;102409.50;5032352;28;20368;-64
2022/10/03 02:10:29;;;;;;;6.47;2.60;;;;;;;18.07;47.64;102422.47;5033476;28;20075;-64
2022/10/03 02:12:59;;;;;;;10.43;3.03;;;;;;;18.01;48.38;102413.03;5033444;28;20029;-64
2022/10/03 02:15:34;;;;;;;10.75;2.72;;;;;;;17.98;48.71;102403.34;5033247;28;20032;-64
2022/10/03 02:18:16;;;;;;;11.05;2.83;;;;;;;17.94;48.67;102401.91;5048892;28;20033;-63
2022/10/03 02:20:48;;;;;;;10.25;3.00;;;;;;;17.93;48.71;102400.19;5053302;28;20024;-63
2022/10/03 02:23:30;;;;;;;9.38;2.70;;;;;;;17.90;48.55;102399.59;5052053;28;20029;-63
2022/10/03 02:26:37;;;;;;;10.93;3.80;;;;;;;17.87;48.20;102403.44;5053136;28;20025;-64
2022/10/03 02:29:11;;;;;;;11.73;3.05;;;;;;;17.83;48.43;102399.31;5051866;28;20024;-63
2022/10/03 02:31:48;;;;;;;7.88;3.60;;;;;;;17.81;48.29;102401.28;5051484;28;20077;-64
2022/10/03 02:34:31;;;;;;;11.35;3.50;;;;;;;17.80;47.92;102410.44;5035097;28;20028;-64
2022/10/03 02:37:13;;;;;;;9.38;3.70;;;;;;;17.74;48.21;102410.97;5051881;28;20029;-64
2022/10/03 02:39:53;;;;;;;10.13;3.38;;;;;;;17.78;47.95;102412.41;5052854;28;20482;-63
2022/10/03 02:42:35;;;;;;;10.00;3.78;;;;;;;17.78;49.00;102416.97;5051712;28;20024;-63
2022/10/03 02:45:29;;;;;;;7.68;3.25;;;;;;;17.78;47.71;102416.97;5066015;28;20036;-64
2022/10/03 02:48:18;;;;;;;6.95;2.75;;;;;;;17.76;49.34;102413.53;5072761;28;20038;-64
2022/10/03 02:51:00;;;;;;;9.60;3.20;;;;;;;17.74;49.15;102410.97;5043847;28;20038;-64
2022/10/03 02:54:03;;;;;;;12.15;3.88;;;;;;;17.73;47.91;102414.66;5050458;28;20021;-63
2022/10/03 02:56:53;;;;;;;6.88;3.22;;;;;;;17.72;49.40;102412.09;5052665;28;20383;-63
2022/10/03 02:59:43;;;;;;;10.20;2.97;;;;;;;17.66;47.98;102407.22;5052474;28;20103;-63
2022/10/03 03:02:39;;;;;;;4.68;3.10;;;;;;;17.70;49.02;102414.09;5045490;28;20083;-64
2022/10/03 03:05:23;;;;;;;7.40;3.60;;;;;;;17.68;47.89;102411.50;5034932;28;20028;-64
2022/10/03 03:08:06;;;;;;;9.57;3.67;;;;;;;17.67;49.02;102404.38;5032568;28;20036;-64
2022/10/03 03:10:51;;;;;;;23.05;3.83;;;;;;;17.69;47.93;102415.94;5032611;28;20419;-64
2022/10/03 03:13:54;;;;;;;7.57;3.45;;;;;;;17.70;48.31;102411.38;5031539;28;20095;-63
2022/10/03 03:16:58;;;;;;;6.72;3.45;;;;;;;17.68;49.19;102397.97;5031342;28;20021;-63
2022/10/03 03:19:36;;;;;;;12.25;3.35;;;;;;;17.66;48.89;102391.81;5002906;28;20042;-64
2022/10/03 03:22:31;;;;;;;17.67;3.97;;;;;;;17.65;48.32;102395.50;5032518;28;20021;-63
2022/10/03 03:25:20;;;;;;;13.63;3.42;;;;;;;17.65;49.20;102400.06;5032649;28;20040;-64
2022/10/03 03:28:02;;;;;;;9.25;4.00;;;;;;;17.64;48.57;102407.38;5031040;28;20029;-63
2022/10/03 03:30:39;;;;;;;8.27;3.42;;;;;;;17.64;48.77;102415.50;5031224;28;20017;-63
2022/10/03 03:33:20;;;;;;;10.80;3.97;;;;;;;17.61;48.36;102404.94;5032310;28;20392;-63
2022/10/03 03:35:52;;;;;;;10.45;3.72;;;;;;;17.64;49.39;102410.09;5032577;28;20017;-64
2022/10/03 03:38:33;;;;;;;17.17;3.70;;;;;;;17.62;48.73;102422.88;5031282;28;20029;-64
2022/10/03 03:41:51;;;;;;;10.10;3.70;;;;;;;17.67;49.67;102417.91;5016103;28;20083;-64
2022/10/03 03:44:32;;;;;;;15.88;3.50;;;;;;;17.66;48.95;102426.19;5045351;28;20549;-63
2022/10/03 03:47:23;;;;;;;15.27;3.60;;;;;;;17.65;48.48;102416.34;5052077;28;20382;-64
2022/10/03 03:50:01;;;;;;;12.15;3.47;;;;;;;17.67;48.81;102420.63;5052069;28;20041;-64
2022/10/03 03:52:47;;;;;;;11.43;4.35;;;;;;;17.67;49.46;102415.19;5059991;28;20028;-63
2022/10/03 03:55:34;;;;;;;11.88;3.40;;;;;;;17.68;49.24;102422.34;5071865;28;20036;-63
2022/10/03 03:58:24;;;;;;;12.93;3.90;;;;;;;17.66;48.99;102429.78;5071867;28;20478;-64
2022/10/03 04:01:34;;;;;;;9.57;3.65;;;;;;;17.64;48.49;102430.91;5072057;28;20478;-64
2022/10/03 04:04:44;;;;;;;6.90;3.70;;;;;;;17.61;48.74;102432.03;5051563;28;20136;-64
2022/10/03 04:07:28;;;;;;;10.20;4.10;;;;;;;17.59;49.17;102425.03;5067980;28;20047;-63
2022/10/03 04:10:18;;;;;;;10.02;3.75;;;;;;;17.56;48.66;102428.84;5072164;28;20418;-64
2022/10/03 04:12:54;;;;;;;8.82;3.83;;;;;;;17.55;48.33;102432.56;5071770;28;20031;-64
2022/10/03 04:15:38;;;;;;;19.05;4.43;;;;;;;17.55;49.30;102429.00;5072590;28;20020;-64
2022/10/03 04:21:15;;;;;;;14.98;3.60;;;;;;;17.53;48.48;102437.25;5075746;28;20040;-64
2022/10/03 04:24:00;;;;;;;9.32;3.83;;;;;;;17.55;49.01;102437.13;5075582;28;20035;-63
2022/10/03 04:26:44;;;;;;;9.75;4.07;;;;;;;17.55;49.60;102432.56;5074225;28;20032;-64
2022/10/03 04:29:24;;;;;;;15.77;4.20;;;;;;;17.55;49.07;102440.69;5075698;28;20035;-64
2022/10/03 04:32:11;;;;;;;7.50;3.90;;;;;;;17.56;48.51;102438.84;5075479;28;20389;-64
2022/10/03 04:34:50;;;;;;;10.60;4.00;;;;;;;17.56;49.27;102444.28;5075474;28;20111;-64
2022/10/03 04:37:53;;;;;;;11.77;3.85;;;;;;;17.58;49.11;102443.13;5074017;28;20355;-63
2022/10/03 04:40:25;;;;;;;11.95;4.18;;;;;;;17.59;49.54;102444.84;4993746;28;20030;-64
2022/10/03 04:43:01;;;;;;;9.73;4.30;;;;;;;17.60;49.52;102441.16;4993744;28;20085;-64
2022/10/03 04:45:36;;;;;;;8.73;4.32;;;;;;;17.62;50.10;102444.56;5040820;28;20032;-64
2022/10/03 04:48:06;;;;;;;11.23;3.75;;;;;;;17.64;49.64;102448.03;5074965;28;20107;-64
2022/10/03 04:50:57;;;;;;;14.50;4.30;;;;;;;17.67;48.97;102445.00;5073858;28;20071;-64
2022/10/03 04:53:28;;;;;;;12.38;4.55;;;;;;;17.69;48.83;102440.34;5057003;28;20108;-64
2022/10/03 04:56:28;;;;;;;10.88;4.32;;;;;;;17.68;48.95;102438.63;5075264;28;20029;-64
2022/10/03 04:58:59;;;;;;;13.10;4.40;;;;;;;17.70;48.62;102447.47;5074786;28;20095;-64
2022/10/03 05:01:49;;;;;;;11.82;5.20;;;;;;;17.71;49.62;102446.47;5074910;28;20505;-64
2022/10/03 05:04:42;;;;;;;8.77;4.00;;;;;;;17.69;49.49;102440.34;5073553;28;20036;-64
2022/10/03 05:07:52;;;;;;;8.68;4.47;;;;;;;17.68;49.10;102444.03;5074238;28;20051;-64
2022/10/03 05:10:27;;;;;;;10.23;4.20;;;;;;;17.66;49.43;102440.59;5046100;28;20066;-64
2022/10/03 05:13:11;;;;;;;12.38;4.40;;;;;;;17.64;48.90;102434.47;5074533;28;20377;-64
2022/10/03 05:15:45;;;;;;;6.80;3.95;;;;;;;17.62;49.22;102443.72;5074603;28;20036;-64
2022/10/03 05:18:20;;;;;;;12.45;3.97;;;;;;;17.58;48.81;102443.13;5074476;28;20476;-64
2022/10/03 05:21:06;;;;;;;9.43;4.45;;;;;;;17.54;48.35;102447.09;5056599;28;20478;-64
2022/10/03 05:23:37;;;;;;;11.68;3.78;;;;;;;17.51;48.57;102452.75;5074442;28;20035;-64
2022/10/03 05:26:22;;;;;;;12.20;4.25;;;;;;;17.50;48.92;102450.19;5072585;28;20385;-64
2022/10/03 05:29:03;;;;;;;12.18;4.30;;;;;;;17.44;49.01;102451.59;5074733;28;20435;-64
2022/10/03 05:31:37;;;;;;;13.25;5.00;;;;;;;17.47;48.92;102467.56;5073285;28;20385;-64
2022/10/03 05:34:08;;;;;;;16.80;5.07;;;;;;;17.47;49.43;102473.00;5072996;28;20047;-64
2022/10/03 05:37:13;;;;;;;15.05;4.90;;;;;;;17.46;49.16;102473.97;5074519;28;20020;-64
2022/10/03 05:40:03;;;;;;;15.15;4.63;;;;;;;17.46;49.13;102476.69;5050971;28;20032;-64
2022/10/03 05:42:36;;;;;;;15.57;4.30;;;;;;;17.46;49.52;102487.53;5060814;28;20036;-64
2022/10/03 05:45:23;;;;;;;16.48;5.78;;;;;;;17.43;49.27;102485.06;5072682;28;20490;-64
2022/10/03 05:48:09;;;;;;;9.57;5.30;;;;;;;17.42;48.92;102476.09;5057586;28;20068;-64
2022/10/03 05:51:02;;;;;;;12.70;5.05;;;;;;;17.38;49.16;102476.50;5054829;28;20029;-64
2022/10/03 05:53:27;;;;;;;12.00;5.60;;;;;;;17.44;48.58;102489.50;5047559;28;20034;-63
2022/10/03 05:56:31;;;;;;;13.38;5.20;;;;;;;17.45;48.91;102486.66;5041891;28;20036;-63
2022/10/03 05:59:33;;;;;;;12.68;6.03;;;;;;;17.48;49.50;102489.09;4957451;28;20050;-63
2022/10/03 06:02:02;;;;;;;14.40;6.50;;;;;;;17.48;49.66;102490.94;4973851;28;20126;-63
2022/10/03 06:04:38;;;;;;;10.70;5.63;;;;;;;17.51;48.69;102487.97;4973641;28;20041;-63
2022/10/03 06:07:20;;;;;;;14.00;6.20;;;;;;;17.55;48.89;102494.03;4957522;28;20400;-63
2022/10/03 06:10:10;;;;;;;16.77;6.77;;;;;;;17.57;48.72;102492.03;4957532;28;20034;-63
2022/10/03 06:13:02;;;;;;;12.68;6.00;;;;;;;17.59;49.56;102487.38;4973509;28;20041;-63
2022/10/03 06:15:56;;;;;;;15.60;6.40;;;;;;;17.61;48.71;102486.22;4965838;28;20043;-63
2022/10/03 06:18:43;;;;;;;19.70;6.85;;;;;;;17.62;50.05;102487.94;4961187;28;20125;-63
2022/10/03 06:21:23;;;;;;;14.00;6.22;;;;;;;17.61;49.30;102480.81;4957324;28;20042;-63
2022/10/03 06:24:18;;;;;;;14.07;6.75;;;;;;;17.66;49.78;102489.41;4973450;28;20041;-63
2022/10/03 06:27:09;;;;;;;12.43;5.80;;;;;;;17.68;48.95;102502.81;4963633;28;20093;-63
2022/10/03 06:29:43;;;;;;;21.50;6.75;;;;;;;17.68;49.19;102498.25;4976505;28;20026;-63
2022/10/03 06:32:40;;;;;;;14.25;6.95;;;;;;;17.65;49.06;102497.66;5003364;28;20424;-63
2022/10/03 06:35:20;;;;;;;16.70;7.13;;;;;;;17.65;48.36;102501.22;5052783;28;20051;-63
2022/10/03 06:38:12;;;;;;;18.23;6.85;;;;;;;17.67;48.78;102510.06;5053487;28;20047;-63
2022/10/03 06:40:59;;;;;;;17.52;6.57;;;;;;;17.67;48.84;102512.78;5052681;28;20118;-63
2022/10/03 06:43:48;;;;;;;21.85;7.70;;;;;;;17.65;48.99;102503.94;5052344;28;20104;-63
2022/10/03 06:46:47;;;;;;;16.85;7.25;;;;;;;17.75;49.69;102515.69;5033742;28;20029;-63
2022/10/03 06:49:35;;;;;;;19.33;6.55;;;;;;;17.79;49.46;102517.13;5006617;28;20449;-63
2022/10/03 06:52:00;;;;;;;19.73;6.78;;;;;;;17.78;49.50;102509.97;5032782;28;20116;-63
2022/10/03 06:54:31;;;;;;;18.55;7.00;;;;;;;17.81;48.97;102515.13;5033777;28;20435;-63
2022/10/03 06:57:35;;;;;;;13.40;6.03;;;;;;;17.86;49.42;102507.47;5033950;28;20479;-63
2022/10/03 07:00:14;;;;;;;16.88;6.20;;;;;;;17.87;48.74;102502.88;5005164;28;20049;-63
2022/10/03 07:03:17;;;;;;;19.38;7.50;;;;;;;17.93;49.21;102519.50;5032671;28;20021;-63
2022/10/03 07:05:46;;;;;;;16.92;6.43;;;;;;;17.99;48.91;102518.94;5033573;28;20474;-63
2022/10/03 07:08:42;;;;;;;16.92;6.72;;;;;;;18.11;49.24;102527.00;5038982;28;20051;-63
2022/10/03 07:11:42;;;;;;;17.02;6.00;;;;;;;18.19;49.10;102521.75;5053481;28;20107;-63
2022/10/03 07:14:54;;;;;;;18.55;6.10;;;;;;;18.34;49.05;102521.22;5045625;28;20413;-64
2022/10/03 07:17:22;;;;;;;19.13;6.45;;;;;;;18.43;49.38;102520.38;5030088;28;20045;-63
2022/10/03 07:20:00;;;;;;;22.95;6.38;;;;;;;18.45;48.94;102514.84;5053250;28;20025;-63
2022/10/03 07:22:47;;;;;;;13.55;6.68;;;;;;;18.44;49.61;102510.41;5053489;28;20108;-63
2022/10/03 07:25:52;;;;;;;20.02;7.70;;;;;;;18.42;49.63;102515.97;5033400;28;20379;-63
2022/10/03 07:28:41;;;;;;;17.27;7.32;;;;;;;18.43;49.36;102517.69;5002922;28;20403;-63
2022/10/03 07:31:34;;;;;;;16.15;7.30;;;;;;;18.45;49.65;102520.25;5032465;28;20026;-64
2022/10/03 07:34:18;;;;;;;;;;;;;;;18.47;48.87;102518.25;5033658;28;20044;-64
2022/10/03 07:39:42;;;;;;;17.77;6.93;;;;;;;18.94;48.34;102532.94;5033214;28;20116;-63
2022/10/03 07:42:47;;;;;;;22.55;8.02;;;;;;;19.34;48.06;102530.09;5033194;28;20111;-69
2022/10/03 07:45:44;;;;;;;15.63;7.38;;;;;;;19.68;48.16;102528.66;5033367;28;20037;-63
2022/10/03 07:48:16;;;;;;;15.88;6.88;;;;;;;20.01;47.25;102536.28;5049726;28;20029;-63
2022/10/03 07:50:54;;;;;;;17.67;7.13;;;;;;;20.18;47.72;102538.19;5056462;28;20037;-63
2022/10/03 07:54:03;;;;;;;16.90;7.97;;;;;;;20.41;47.87;102546.00;5041207;28;20104;-63
2022/10/03 07:56:53;;;;;;;17.17;7.88;;;;;;;20.44;48.24;102549.28;5026416;28;20388;-64
2022/10/03 07:59:40;;;;;;;19.25;6.97;;;;;;;20.84;47.11;102551.63;5036911;28;20052;-64
2022/10/03 08:02:24;;;;;;;14.77;6.70;;;;;;;20.92;47.13;102559.88;5035800;28;20505;-63
2022/10/03 08:05:28;;;;;;;13.73;6.18;;;;;;;20.80;48.17;102555.66;5036812;28;20021;-63
2022/10/03 08:08:18;;;;;;;13.75;6.32;;;;;;;20.63;48.81;102548.31;5036260;28;20065;-63
2022/10/03 08:11:01;;;;;;;12.55;5.95;;;;;;;20.64;48.42;102564.50;5035832;28;20075;-64
2022/10/03 08:14:04;;;;;;;13.30;5.28;;;;;;;20.74;48.46;102567.19;5035637;28;20112;-63
2022/10/03 08:16:51;;;;;;;12.07;4.97;;;;;;;21.18;47.41;102562.72;5036719;28;20021;-63
2022/10/03 08:19:50;;;;;;;6.60;3.92;;;;;;;21.79;46.25;102565.44;5035458;28;20452;-64
2022/10/03 08:22:37;;;;;;;12.80;4.38;;;;;;;22.22;46.83;102562.66;5035466;28;20475;-64
2022/10/03 08:25:25;;;;;;;15.82;4.60;;;;;;;22.58;45.61;102564.19;5036607;28;20391;-64
2022/10/03 08:28:28;;;;;;;10.52;3.90;;;;;;;22.86;46.63;102553.06;5036520;28;20491;-64
2022/10/03 08:31:02;;;;;;;10.50;4.57;;;;;;;23.27;45.81;102554.81;5036361;28;20040;-64
2022/10/03 08:33:43;;;;;;;7.07;4.38;;;;;;;23.32;45.73;102555.16;5036237;28;20029;-64
2022/10/03 08:36:23;;;;;;;9.75;3.78;;;;;;;23.55;45.66;102558.97;5036204;28;20041;-64
2022/10/03 08:39:18;;;;;;;6.72;3.83;;;;;;;23.48;45.11;102562.56;5036105;28;20032;-64
2022/10/03 08:42:06;;;;;;;12.85;4.00;;;;;;;23.65;45.93;102551.41;5034906;28;20497;-64
2022/10/03 08:44:44;;;;;;;7.68;3.95;;;;;;;23.90;45.27;102560.44;5036280;28;20121;-64
2022/10/03 08:47:40;;;;;;;8.55;4.50;;;;;;;24.09;44.43;102556.50;5034771;28;20022;-64
2022/10/03 08:50:27;;;;;;;9.45;4.25;;;;;;;24.52;44.76;102553.25;5034809;28;20025;-65
2022/10/03 08:53:22;;;;;;;11.00;4.40;;;;;;;24.80;43.99;102551.78;5035807;28;20021;-64
2022/10/03 08:56:06;;;;;;;10.07;3.70;;;;;;;25.06;43.89;102545.09;5036114;28;20522;-64
2022/10/03 08:58:53;;;;;;;9.50;4.32;;;;;;;25.30;43.27;102551.25;5034685;28;20410;-64
2022/10/03 09:01:32;;;;;;;6.93;3.85;;;;;;;25.47;43.66;102549.25;5035066;28;20087;-64
2022/10/03 09:04:08;;;;;;;13.45;4.03;;;;;;;25.72;43.13;102547.13;5035758;28;20033;-64
2022/10/03 09:07:05;;;;;;;9.15;3.47;;;;;;;25.93;42.68;102539.91;5034484;28;20048;-64
2022/10/03 09:10:06;;;;;;;9.27;3.10;;;;;;;26.18;43.06;102531.41;5035855;28;20030;-65
2022/10/03 09:13:13;;;;;;;13.50;3.85;;;;;;;26.36;42.21;102534.59;5035783;28;20432;-62
2022/10/03 09:16:09;;;;;;;8.88;2.90;;;;;;;26.43;42.88;102538.31;4955143;29;20081;-62
2022/10/03 09:18:55;;;;;;;13.55;3.42;;;;;;;26.51;41.86;102540.94;4955218;29;20031;-62
2022/10/03 09:21:23;;;;;;;12.55;3.22;;;;;;;26.83;41.98;102540.50;4955248;29;20066;-62
2022/10/03 09:24:26;;;;;;;9.63;3.47;;;;;;;27.54;41.56;102541.47;4955140;29;20058;-63
2022/10/03 09:27:25;;;;;;;5.18;3.75;;;;;;;28.83;39.76;102538.88;4955080;29;20042;-62
2022/10/03 09:30:12;;;;;;;9.07;4.15;;;;;;;29.95;37.96;102545.38;4954918;29;20493;-63
2022/10/03 09:33:05;;;;;;;11.95;3.95;;;;;;;29.34;38.46;102544.75;4955007;29;20042;-63
2022/10/03 09:35:38;;;;;;;5.47;2.90;;;;;;;29.38;38.64;102546.88;4954906;29;20031;-62
2022/10/03 09:38:15;;;;;;;7.47;3.00;;;;;;;29.57;39.24;102542.41;4954959;29;20540;-63
2022/10/03 09:40:49;;;;;;;9.73;3.50;;;;;;;29.89;38.17;102537.94;4954903;29;20035;-63
2022/10/03 09:43:39;;;;;;;6.05;3.20;;;;;;;30.27;37.36;102538.91;4954806;29;20110;-62
2022/10/03 09:46:16;;;;;;;11.35;3.03;;;;;;;30.55;37.70;102542.25;4954789;29;20378;-61
2022/10/03 09:48:50;;;;;;;5.60;2.78;;;;;;;30.79;37.13;102531.50;4967188;28;20095;-62
2022/10/03 09:51:30;;;;;;;9.60;3.17;;;;;;;31.15;36.50;102520.63;5034771;28;20390;-62
2022/10/03 09:54:21;;;;;;;6.68;2.70;;;;;;;31.55;36.37;102522.03;5034589;28;20017;-61
2022/10/03 09:56:52;;;;;;;7.25;3.03;;;;;;;31.77;36.46;102524.41;5033815;28;20372;-61
2022/10/03 09:59:44;;;;;;;8.57;3.10;;;;;;;32.08;36.02;102527.06;5034458;28;20041;-62
2022/10/03 10:02:34;;;;;;;8.77;3.40;;;;;;;32.19;35.50;102518.84;5033677;28;20083;-62
2022/10/03 10:05:30;;;;;;;10.55;2.72;;;;;;;32.28;35.32;102511.06;5034467;28;20368;-62
2022/10/03 10:08:14;;;;;;;6.60;2.90;;;;;;;32.64;34.53;102512.97;5034347;28;20021;-62
2022/10/03 10:11:03;;;;;;;5.68;3.20;;;;;;;33.21;34.86;102511.50;5034393;28;20029;-62
2022/10/03 10:13:28;;;;;;;6.45;3.13;;;;;;;33.33;34.75;102501.25;5033370;28;20021;-62
2022/10/03 10:16:09;;;;;;;10.07;3.42;;;;;;;33.44;34.40;102500.44;5034275;28;20541;-62
2022/10/03 10:18:53;;;;;;;18.33;2.63;;;;;;;33.12;34.41;102497.09;5033036;28;20032;-62
2022/10/03 10:21:31;;;;;;;7.90;2.47;;;;;;;32.98;34.52;102497.50;5034458;28;20021;-61
2022/10/03 10:24:17;;;;;;;4.63;1.88;;;;;;;33.03;34.19;102497.69;5034242;28;20038;-62
2022/10/03 10:27:30;;;;;;;6.72;1.77;;;;;;;33.50;34.06;102499.47;5033983;28;20079;-62
2022/10/03 10:30:20;;;;;;;7.15;2.38;;;;;;;33.22;33.75;102494.56;4953485;28;20051;-62
2022/10/03 10:33:13;;;;;;;9.63;2.42;;;;;;;33.50;33.11;102499.47;4973158;28;20445;-62
2022/10/03 10:35:59;;;;;;;6.28;1.35;;;;;;;33.69;32.02;102497.44;5043745;28;20041;-62
2022/10/03 10:38:46;;;;;;;5.07;1.63;;;;;;;33.95;32.67;102486.66;5053852;28;20025;-62
2022/10/03 10:43:44;;;;;;;5.93;1.63;;;;;;;34.51;32.14;102496.22;5070032;28;20852;-64
2022/10/03 10:46:20;;;;;;;5.45;1.50;;;;;;;34.59;31.29;102487.53;5052631;28;20117;-62
2022/10/03 10:49:04;;;;;;;7.10;1.73;;;;;;;34.81;31.90;102480.16;5070484;28;20083;-62
2022/10/03 10:51:57;;;;;;;7.05;1.38;;;;;;;35.04;31.32;102480.00;5070468;28;20539;-62
2022/10/03 10:54:31;;;;;;;;;;;;;;;35.25;31.50;102494.31;5068180;28;20025;-62
2022/10/03 10:57:21;;;;;;;5.88;1.92;;;;;;;35.50;30.58;102494.72;5049159;28;19960;-61
2022/10/03 11:00:04;;;;;;;7.13;1.25;;;;;;;35.21;31.44;102484.75;5050317;28;20390;-62
2022/10/03 11:02:48;;;;;;;;;;;;;;;34.76;31.74;102482.81;5050556;28;20025;-62
2022/10/03 11:05:41;;;;;;;4.10;0.93;;;;;;;34.31;30.87;102476.34;5028815;28;19924;-61
2022/10/03 11:08:44;;;;;;;4.28;0.93;;;;;;;34.87;30.80;102475.53;5030239;28;20510;-64
2022/10/03 11:11:36;;;;;;;2.88;1.65;;;;;;;34.93;31.05;102478.13;5030218;28;20045;-61
2022/10/03 11:14:39;;;;;;;3.45;0.90;;;;;;;34.71;30.44;102471.59;5030199;28;20469;-61
2022/10/03 11:17:13;;;;;;;3.50;0.70;;;;;;;34.19;30.93;102478.28;5030140;28;20017;-62
2022/10/03 11:20:09;;;;;;;7.85;1.45;;;;;;;34.17;31.02;102486.06;5030059;28;20109;-61
2022/10/03 11:22:48;;;;;;;2.83;0.80;;;;;;;33.62;31.67;102483.66;5030179;28;20436;-61
2022/10/03 11:25:36;;;;;;;4.30;1.13;;;;;;;33.16;32.26;102480.81;5028609;28;20041;-62
2022/10/03 11:28:11;;;;;;;3.53;0.88;;;;;;;32.31;32.70;102488.41;5030083;28;20130;-63
2022/10/03 11:30:52;;;;;;;2.95;1.10;;;;;;;31.96;31.85;102484.53;5029910;28;20463;-63
2022/10/03 11:33:48;;;;;;;3.70;1.10;;;;;;;32.64;30.60;102491.59;5028517;28;20087;-63
2022/10/03 11:36:37;;;;;;;3.05;0.77;;;;;;;32.42;31.42;102490.38;5045212;28;20065;-63
2022/10/03 11:39:11;;;;;;;3.85;1.10;;;;;;;32.86;30.27;102480.81;5029774;28;20029;-62
2022/10/03 11:41:45;;;;;;;2.72;0.60;;;;;;;33.35;30.57;102480.47;5028368;28;20056;-63
2022/10/03 11:44:11;;;;;;;3.30;1.25;;;;;;;33.73;30.21;102466.13;5029607;28;20026;-61
2022/10/03 11:46:49;;;;;;;4.40;0.82;;;;;;;33.94;29.40;102476.63;5029805;28;20088;-62
2022/10/03 11:49:41;;;;;;;5.28;0.70;;;;;;;34.17;29.27;102472.13;5029472;28;20036;-62
2022/10/03 11:52:30;;;;;;;3.08;0.90;;;;;;;34.32;28.78;102469.66;5028273;28;20026;-61
2022/10/03 11:55:15;;;;;;;3.47;0.75;;;;;;;34.47;28.35;102472.75;5015869;28;20033;-61
2022/10/03 11:57:43;;;;;;;3.50;0.98;;;;;;;34.62;28.31;102463.91;5015174;28;20373;-62
2022/10/03 12:00:12;;;;;;;3.88;1.02;;;;;;;34.73;28.14;102455.47;5031425;28;20116;-61
2022/10/03 12:03:14;;;;;;;1.95;0.75;;;;;;;34.59;28.80;102454.09;5015148;28;20033;-62
2022/10/03 12:05:45;;;;;;;4.28;1.48;;;;;;;34.63;29.16;102458.06;5014919;28;20030;-61
2022/10/03 12:11:32;;;;;;;2.67;0.73;;;;;;;34.79;27.83;102457.25;5015956;28;20518;-61
2022/10/03 12:14:09;;;;;;;0.65;0.50;;;;;;;34.70;27.43;102460.72;5014524;28;20029;-61
2022/10/03 12:17:19;;;;;;;3.75;0.60;;;;;;;34.77;28.34;102462.22;5034958;28;20022;-61
2022/10/03 12:19:50;;;;;;;4.10;0.95;;;;;;;34.80;27.33;102453.38;5013080;28;20052;-61
2022/10/03 12:22:27;;;;;;;2.38;0.68;;;;;;;34.82;27.32;102453.13;5035463;28;20075;-62
2022/10/03 12:25:00;;;;;;;2.90;1.13;;;;;;;34.87;27.36;102454.06;5035550;28;20025;-61
2022/10/03 12:27:53;;;;;;;2.92;0.70;;;;;;;34.87;27.76;102454.06;5035477;28;20022;-62
2022/10/03 12:30:18;;;;;;;;;;;;;;;34.60;27.81;102450.22;5035798;28;20017;-62
2022/10/03 12:33:17;;;;;;;4.78;0.93;;;;;;;34.69;27.70;102448.72;5035371;28;19959;-61
2022/10/03 12:36:01;;;;;;;2.97;0.82;;;;;;;34.08;28.04;102441.06;5030647;28;20486;-62
2022/10/03 12:38:54;;;;;;;3.08;0.73;;;;;;;34.06;27.67;102453.50;5031832;28;20039;-61
2022/10/03 12:41:46;;;;;;;1.90;0.60;;;;;;;33.97;28.28;102450.25;5034350;28;20078;-62
2022/10/03 12:44:20;;;;;;;5.13;0.70;;;;;;;33.92;28.66;102448.19;5035160;28;20509;-62
2022/10/03 12:46:57;;;;;;;1.63;0.70;;;;;;;33.75;27.64;102446.44;5034859;28;20108;-62
2022/10/03 12:50:05;;;;;;;2.60;1.35;;;;;;;33.49;29.09;102447.75;5035067;28;20470;-62
2022/10/03 12:52:38;;;;;;;4.60;0.68;;;;;;;33.46;27.80;102453.78;4997510;28;20029;-61
2022/10/03 12:55:29;;;;;;;2.47;0.63;;;;;;;33.37;29.04;102444.94;5034956;28;20025;-61
2022/10/03 12:58:14;;;;;;;1.35;0.60;;;;;;;33.17;28.20;102450.00;5034005;28;20433;-61
2022/10/03 13:00:39;;;;;;;8.68;1.63;;;;;;;32.96;29.24;102442.22;5033903;28;20025;-62